sensor_id;sensor_type;location;lat;lon;timestamp;P1;durP1;ratioP1;P2;durP2;ratioP2
10497;SDS011;5296;51.060;13.750;2023-08-17T00:02:56;9.50;;;7.80;;
10497;SDS011;5296;51.060;13.750;2023-08-17T00:07:59;9.25;;;7.35;;
10497;SDS011;5296;51.060;13.750;2023-08-17T00:13:01;9.10;;;7.22;;
10497;SDS011;5296;51.060;13.750;2023-08-17T00:18:05;8.30;;;7.28;;
10497;SDS011;5296;51.060;13.750;2023-08-17T00:23:06;8.60;;;7.80;;
10497;SDS011;5296;51.060;13.750;2023-08-17T00:28:08;8.20;;;7.50;;
10497;SDS011;5296;51.060;13.750;2023-08-17T00:33:10;9.60;;;8.20;;
10497;SDS011;5296;51.060;13.750;2023-08-17T00:38:12;8.38;;;7.63;;
10497;SDS011;5296;51.060;13.750;2023-08-17T00:43:14;11.88;;;8.60;;
10497;SDS011;5296;51.060;13.750;2023-08-17T00:48:16;9.23;;;8.43;;
10497;SDS011;5296;51.060;13.750;2023-08-17T00:53:18;9.52;;;8.60;;
10497;SDS011;5296;51.060;13.750;2023-08-17T00:58:21;8.48;;;7.63;;
10497;SDS011;5296;51.060;13.750;2023-08-17T01:03:22;8.18;;;7.43;;
10497;SDS011;5296;51.060;13.750;2023-08-17T01:08:24;16.63;;;7.82;;
10497;SDS011;5296;51.060;13.750;2023-08-17T01:13:44;7.38;;;6.78;;
10497;SDS011;5296;51.060;13.750;2023-08-17T01:18:48;8.02;;;7.25;;
10497;SDS011;5296;51.060;13.750;2023-08-17T01:23:51;9.02;;;7.40;;
10497;SDS011;5296;51.060;13.750;2023-08-17T01:28:53;7.40;;;6.72;;
10497;SDS011;5296;51.060;13.750;2023-08-17T01:33:56;8.35;;;7.50;;
10497;SDS011;5296;51.060;13.750;2023-08-17T01:39:01;7.97;;;7.28;;
10497;SDS011;5296;51.060;13.750;2023-08-17T01:44:03;7.63;;;6.93;;
10497;SDS011;5296;51.060;13.750;2023-08-17T01:49:06;8.38;;;7.53;;
10497;SDS011;5296;51.060;13.750;2023-08-17T01:54:07;8.73;;;8.00;;
10497;SDS011;5296;51.060;13.750;2023-08-17T01:59:09;8.82;;;7.20;;
10497;SDS011;5296;51.060;13.750;2023-08-17T02:04:11;8.85;;;7.57;;
10497;SDS011;5296;51.060;13.750;2023-08-17T02:09:13;8.27;;;7.47;;
10497;SDS011;5296;51.060;13.750;2023-08-17T02:14:15;7.65;;;6.78;;
10497;SDS011;5296;51.060;13.750;2023-08-17T02:19:17;7.18;;;6.47;;
10497;SDS011;5296;51.060;13.750;2023-08-17T02:24:18;6.72;;;6.07;;
10497;SDS011;5296;51.060;13.750;2023-08-17T02:29:20;6.40;;;5.90;;
10497;SDS011;5296;51.060;13.750;2023-08-17T02:34:22;6.55;;;5.93;;
10497;SDS011;5296;51.060;13.750;2023-08-17T02:39:24;6.80;;;5.78;;
10497;SDS011;5296;51.060;13.750;2023-08-17T02:44:26;6.03;;;5.53;;
10497;SDS011;5296;51.060;13.750;2023-08-17T02:49:29;5.65;;;5.20;;
10497;SDS011;5296;51.060;13.750;2023-08-17T02:54:31;6.13;;;5.55;;
10497;SDS011;5296;51.060;13.750;2023-08-17T02:59:32;5.22;;;4.80;;
10497;SDS011;5296;51.060;13.750;2023-08-17T03:04:34;6.68;;;5.35;;
10497;SDS011;5296;51.060;13.750;2023-08-17T03:09:36;6.05;;;5.45;;
10497;SDS011;5296;51.060;13.750;2023-08-17T03:14:37;5.80;;;5.30;;
10497;SDS011;5296;51.060;13.750;2023-08-17T03:19:39;5.80;;;5.30;;
10497;SDS011;5296;51.060;13.750;2023-08-17T03:24:41;5.97;;;5.47;;
10497;SDS011;5296;51.060;13.750;2023-08-17T03:29:42;10.25;;;6.68;;
10497;SDS011;5296;51.060;13.750;2023-08-17T03:34:44;7.93;;;7.22;;
10497;SDS011;5296;51.060;13.750;2023-08-17T03:39:46;8.25;;;7.57;;
10497;SDS011;5296;51.060;13.750;2023-08-17T03:44:48;8.75;;;7.93;;
10497;SDS011;5296;51.060;13.750;2023-08-17T03:49:49;9.63;;;8.80;;
10497;SDS011;5296;51.060;13.750;2023-08-17T03:54:51;13.48;;;8.65;;
10497;SDS011;5296;51.060;13.750;2023-08-17T03:59:53;10.40;;;8.88;;
10497;SDS011;5296;51.060;13.750;2023-08-17T04:04:54;9.35;;;8.55;;
10497;SDS011;5296;51.060;13.750;2023-08-17T04:09:56;10.18;;;9.10;;
10497;SDS011;5296;51.060;13.750;2023-08-17T04:14:58;9.45;;;8.55;;
10497;SDS011;5296;51.060;13.750;2023-08-17T04:20:00;9.77;;;8.88;;
10497;SDS011;5296;51.060;13.750;2023-08-17T04:25:02;11.02;;;9.43;;
10497;SDS011;5296;51.060;13.750;2023-08-17T04:30:04;10.55;;;9.32;;
10497;SDS011;5296;51.060;13.750;2023-08-17T04:35:14;10.90;;;9.80;;
10497;SDS011;5296;51.060;13.750;2023-08-17T04:40:16;10.02;;;9.13;;
10497;SDS011;5296;51.060;13.750;2023-08-17T04:45:18;10.07;;;9.02;;
10497;SDS011;5296;51.060;13.750;2023-08-17T04:50:21;9.70;;;8.90;;
10497;SDS011;5296;51.060;13.750;2023-08-17T04:55:24;9.32;;;8.52;;
10497;SDS011;5296;51.060;13.750;2023-08-17T05:00:25;9.63;;;8.63;;
10497;SDS011;5296;51.060;13.750;2023-08-17T05:05:30;10.55;;;8.10;;
10497;SDS011;5296;51.060;13.750;2023-08-17T05:10:33;9.60;;;7.57;;
10497;SDS011;5296;51.060;13.750;2023-08-17T05:15:37;8.38;;;7.50;;
10497;SDS011;5296;51.060;13.750;2023-08-17T05:20:42;11.80;;;8.13;;
10497;SDS011;5296;51.060;13.750;2023-08-17T05:25:47;7.32;;;6.72;;
10497;SDS011;5296;51.060;13.750;2023-08-17T05:30:50;10.90;;;7.68;;
10497;SDS011;5296;51.060;13.750;2023-08-17T05:35:55;8.13;;;7.43;;
10497;SDS011;5296;51.060;13.750;2023-08-17T05:40:57;8.00;;;6.95;;
10497;SDS011;5296;51.060;13.750;2023-08-17T05:45:59;7.72;;;6.90;;
10497;SDS011;5296;51.060;13.750;2023-08-17T05:51:01;7.50;;;6.72;;
10497;SDS011;5296;51.060;13.750;2023-08-17T05:56:02;8.35;;;7.25;;
10497;SDS011;5296;51.060;13.750;2023-08-17T06:01:07;9.30;;;7.35;;
10497;SDS011;5296;51.060;13.750;2023-08-17T06:06:10;7.63;;;6.82;;
10497;SDS011;5296;51.060;13.750;2023-08-17T06:11:12;8.77;;;7.60;;
10497;SDS011;5296;51.060;13.750;2023-08-17T06:16:13;8.75;;;7.50;;
10497;SDS011;5296;51.060;13.750;2023-08-17T06:21:15;10.20;;;6.82;;
10497;SDS011;5296;51.060;13.750;2023-08-17T06:26:17;8.43;;;7.60;;
10497;SDS011;5296;51.060;13.750;2023-08-17T06:31:19;8.82;;;7.90;;
10497;SDS011;5296;51.060;13.750;2023-08-17T06:36:21;8.65;;;7.75;;
10497;SDS011;5296;51.060;13.750;2023-08-17T06:41:23;7.88;;;7.28;;
10497;SDS011;5296;51.060;13.750;2023-08-17T06:46:26;9.38;;;7.22;;
10497;SDS011;5296;51.060;13.750;2023-08-17T06:51:29;7.70;;;6.82;;
10497;SDS011;5296;51.060;13.750;2023-08-17T06:56:31;10.57;;;7.50;;
10497;SDS011;5296;51.060;13.750;2023-08-17T07:01:32;8.57;;;7.78;;
10497;SDS011;5296;51.060;13.750;2023-08-17T07:06:34;8.85;;;7.57;;
10497;SDS011;5296;51.060;13.750;2023-08-17T07:11:36;9.20;;;8.30;;
10497;SDS011;5296;51.060;13.750;2023-08-17T07:16:37;8.68;;;7.85;;
10497;SDS011;5296;51.060;13.750;2023-08-17T07:21:39;10.38;;;8.02;;
10497;SDS011;5296;51.060;13.750;2023-08-17T07:26:41;9.43;;;8.55;;
10497;SDS011;5296;51.060;13.750;2023-08-17T07:31:43;9.55;;;8.63;;
10497;SDS011;5296;51.060;13.750;2023-08-17T07:36:45;9.18;;;8.18;;
10497;SDS011;5296;51.060;13.750;2023-08-17T07:41:47;10.00;;;9.00;;
10497;SDS011;5296;51.060;13.750;2023-08-17T07:46:48;8.98;;;8.27;;
10497;SDS011;5296;51.060;13.750;2023-08-17T07:51:50;9.43;;;8.50;;
10497;SDS011;5296;51.060;13.750;2023-08-17T07:56:53;8.52;;;7.82;;
10497;SDS011;5296;51.060;13.750;2023-08-17T08:01:54;10.32;;;8.55;;
10497;SDS011;5296;51.060;13.750;2023-08-17T08:06:56;8.85;;;7.95;;
10497;SDS011;5296;51.060;13.750;2023-08-17T08:11:58;8.98;;;7.70;;
10497;SDS011;5296;51.060;13.750;2023-08-17T08:17:00;8.88;;;7.13;;
10497;SDS011;5296;51.060;13.750;2023-08-17T08:22:02;8.98;;;7.00;;
10497;SDS011;5296;51.060;13.750;2023-08-17T08:27:04;7.25;;;6.65;;
10497;SDS011;5296;51.060;13.750;2023-08-17T08:32:05;8.13;;;6.75;;
10497;SDS011;5296;51.060;13.750;2023-08-17T08:37:07;7.97;;;7.18;;
10497;SDS011;5296;51.060;13.750;2023-08-17T08:42:09;6.60;;;6.00;;
10497;SDS011;5296;51.060;13.750;2023-08-17T08:47:11;6.97;;;6.38;;
10497;SDS011;5296;51.060;13.750;2023-08-17T08:52:15;6.13;;;5.63;;
10497;SDS011;5296;51.060;13.750;2023-08-17T08:57:20;6.72;;;6.15;;
10497;SDS011;5296;51.060;13.750;2023-08-17T09:02:23;7.13;;;5.65;;
10497;SDS011;5296;51.060;13.750;2023-08-17T09:07:24;7.40;;;6.70;;
10497;SDS011;5296;51.060;13.750;2023-08-17T09:12:27;5.75;;;5.25;;
10497;SDS011;5296;51.060;13.750;2023-08-17T09:17:41;6.78;;;6.20;;
10497;SDS011;5296;51.060;13.750;2023-08-17T09:22:44;6.20;;;5.70;;
10497;SDS011;5296;51.060;13.750;2023-08-17T09:27:45;5.72;;;5.22;;
10497;SDS011;5296;51.060;13.750;2023-08-17T09:32:47;6.38;;;5.88;;
10497;SDS011;5296;51.060;13.750;2023-08-17T09:37:49;6.22;;;5.63;;
10497;SDS011;5296;51.060;13.750;2023-08-17T09:42:51;7.47;;;5.72;;
10497;SDS011;5296;51.060;13.750;2023-08-17T09:47:53;6.20;;;5.60;;
10497;SDS011;5296;51.060;13.750;2023-08-17T09:52:55;6.43;;;5.82;;
10497;SDS011;5296;51.060;13.750;2023-08-17T09:57:57;6.57;;;5.95;;
10497;SDS011;5296;51.060;13.750;2023-08-17T10:02:58;8.38;;;5.85;;
10497;SDS011;5296;51.060;13.750;2023-08-17T10:08:08;7.10;;;6.40;;
10497;SDS011;5296;51.060;13.750;2023-08-17T10:13:14;7.05;;;6.45;;
10497;SDS011;5296;51.060;13.750;2023-08-17T10:18:31;7.20;;;6.65;;
10497;SDS011;5296;51.060;13.750;2023-08-17T10:23:39;7.90;;;7.20;;
10497;SDS011;5296;51.060;13.750;2023-08-17T10:28:44;7.30;;;6.70;;
10497;SDS011;5296;51.060;13.750;2023-08-17T10:33:46;7.38;;;6.78;;
10497;SDS011;5296;51.060;13.750;2023-08-17T10:44:44;7.43;;;6.82;;
10497;SDS011;5296;51.060;13.750;2023-08-17T10:49:50;7.85;;;7.05;;
10497;SDS011;5296;51.060;13.750;2023-08-17T10:54:52;7.82;;;7.15;;
10497;SDS011;5296;51.060;13.750;2023-08-17T11:10:47;8.10;;;7.30;;
10497;SDS011;5296;51.060;13.750;2023-08-17T11:15:59;7.82;;;7.13;;
10497;SDS011;5296;51.060;13.750;2023-08-17T11:21:05;8.13;;;7.45;;
10497;SDS011;5296;51.060;13.750;2023-08-17T11:26:07;7.95;;;7.35;;
10497;SDS011;5296;51.060;13.750;2023-08-17T11:31:10;8.32;;;7.55;;
10497;SDS011;5296;51.060;13.750;2023-08-17T11:36:12;8.55;;;7.75;;
10497;SDS011;5296;51.060;13.750;2023-08-17T11:41:14;7.95;;;7.25;;
10497;SDS011;5296;51.060;13.750;2023-08-17T11:46:19;9.00;;;8.25;;
10497;SDS011;5296;51.060;13.750;2023-08-17T11:51:29;8.43;;;7.63;;
10497;SDS011;5296;51.060;13.750;2023-08-17T11:56:32;8.35;;;7.43;;
10497;SDS011;5296;51.060;13.750;2023-08-17T12:01:34;9.25;;;7.80;;
10497;SDS011;5296;51.060;13.750;2023-08-17T12:06:42;8.07;;;7.28;;
10497;SDS011;5296;51.060;13.750;2023-08-17T12:11:45;8.23;;;7.60;;
10497;SDS011;5296;51.060;13.750;2023-08-17T12:16:48;7.97;;;7.22;;
10497;SDS011;5296;51.060;13.750;2023-08-17T12:21:50;8.77;;;7.88;;
10497;SDS011;5296;51.060;13.750;2023-08-17T12:26:52;8.35;;;7.50;;
10497;SDS011;5296;51.060;13.750;2023-08-17T12:31:58;7.70;;;7.00;;
10497;SDS011;5296;51.060;13.750;2023-08-17T12:37:00;7.50;;;6.85;;
10497;SDS011;5296;51.060;13.750;2023-08-17T12:42:02;8.15;;;6.57;;
10497;SDS011;5296;51.060;13.750;2023-08-17T12:47:05;6.88;;;6.22;;
10497;SDS011;5296;51.060;13.750;2023-08-17T12:52:06;6.60;;;6.03;;
10497;SDS011;5296;51.060;13.750;2023-08-17T12:57:08;6.88;;;6.30;;
10497;SDS011;5296;51.060;13.750;2023-08-17T13:02:13;6.53;;;6.00;;
10497;SDS011;5296;51.060;13.750;2023-08-17T13:07:15;6.30;;;5.80;;
10497;SDS011;5296;51.060;13.750;2023-08-17T13:12:17;6.88;;;6.15;;
10497;SDS011;5296;51.060;13.750;2023-08-17T13:17:19;6.90;;;6.30;;
10497;SDS011;5296;51.060;13.750;2023-08-17T13:22:21;7.57;;;5.85;;
10497;SDS011;5296;51.060;13.750;2023-08-17T13:27:22;6.20;;;5.57;;
10497;SDS011;5296;51.060;13.750;2023-08-17T13:32:25;8.18;;;6.13;;
10497;SDS011;5296;51.060;13.750;2023-08-17T13:37:27;6.80;;;6.20;;
10497;SDS011;5296;51.060;13.750;2023-08-17T13:42:29;7.65;;;6.35;;
10497;SDS011;5296;51.060;13.750;2023-08-17T13:47:31;6.70;;;6.10;;
10497;SDS011;5296;51.060;13.750;2023-08-17T13:52:33;6.97;;;6.38;;
10497;SDS011;5296;51.060;13.750;2023-08-17T13:57:35;8.30;;;6.45;;
10497;SDS011;5296;51.060;13.750;2023-08-17T14:02:36;8.23;;;7.07;;
10497;SDS011;5296;51.060;13.750;2023-08-17T14:07:38;7.40;;;6.80;;
10497;SDS011;5296;51.060;13.750;2023-08-17T14:12:40;7.53;;;6.03;;
10497;SDS011;5296;51.060;13.750;2023-08-17T14:17:41;7.45;;;6.47;;
10497;SDS011;5296;51.060;13.750;2023-08-17T14:22:43;7.22;;;6.53;;
10497;SDS011;5296;51.060;13.750;2023-08-17T14:27:45;7.50;;;6.90;;
10497;SDS011;5296;51.060;13.750;2023-08-17T14:32:47;7.47;;;6.63;;
10497;SDS011;5296;51.060;13.750;2023-08-17T14:37:49;8.60;;;6.80;;
10497;SDS011;5296;51.060;13.750;2023-08-17T14:42:51;7.50;;;6.90;;
10497;SDS011;5296;51.060;13.750;2023-08-17T14:47:55;8.38;;;6.88;;
10497;SDS011;5296;51.060;13.750;2023-08-17T14:52:59;7.78;;;6.85;;
10497;SDS011;5296;51.060;13.750;2023-08-17T14:58:03;7.05;;;6.45;;
10497;SDS011;5296;51.060;13.750;2023-08-17T15:03:05;6.50;;;5.55;;
10497;SDS011;5296;51.060;13.750;2023-08-17T15:08:07;5.97;;;5.47;;
10497;SDS011;5296;51.060;13.750;2023-08-17T15:13:08;9.52;;;5.78;;
10497;SDS011;5296;51.060;13.750;2023-08-17T15:18:11;6.85;;;6.18;;
10497;SDS011;5296;51.060;13.750;2023-08-17T15:23:13;6.43;;;5.82;;
10497;SDS011;5296;51.060;13.750;2023-08-17T15:28:19;11.07;;;6.90;;
10497;SDS011;5296;51.060;13.750;2023-08-17T15:33:21;10.50;;;6.88;;
10497;SDS011;5296;51.060;13.750;2023-08-17T15:38:22;7.18;;;6.47;;
10497;SDS011;5296;51.060;13.750;2023-08-17T15:43:25;7.25;;;6.65;;
10497;SDS011;5296;51.060;13.750;2023-08-17T15:48:26;7.18;;;6.55;;
10497;SDS011;5296;51.060;13.750;2023-08-17T15:53:28;7.70;;;6.80;;
10497;SDS011;5296;51.060;13.750;2023-08-17T15:58:30;8.57;;;6.75;;
10497;SDS011;5296;51.060;13.750;2023-08-17T16:03:31;6.43;;;5.82;;
10497;SDS011;5296;51.060;13.750;2023-08-17T16:08:33;7.38;;;6.82;;
10497;SDS011;5296;51.060;13.750;2023-08-17T16:13:50;8.13;;;6.60;;
10497;SDS011;5296;51.060;13.750;2023-08-17T16:18:51;7.18;;;6.47;;
10497;SDS011;5296;51.060;13.750;2023-08-17T16:23:53;9.70;;;7.40;;
10497;SDS011;5296;51.060;13.750;2023-08-17T16:28:55;9.95;;;7.43;;
10497;SDS011;5296;51.060;13.750;2023-08-17T16:33:57;7.38;;;6.78;;
10497;SDS011;5296;51.060;13.750;2023-08-17T16:38:58;8.32;;;7.40;;
10497;SDS011;5296;51.060;13.750;2023-08-17T16:44:00;9.73;;;6.88;;
10497;SDS011;5296;51.060;13.750;2023-08-17T16:49:06;8.52;;;7.72;;
10497;SDS011;5296;51.060;13.750;2023-08-17T16:54:08;12.55;;;7.50;;
10497;SDS011;5296;51.060;13.750;2023-08-17T16:59:09;9.45;;;7.63;;
10497;SDS011;5296;51.060;13.750;2023-08-17T17:04:12;7.90;;;6.95;;
10497;SDS011;5296;51.060;13.750;2023-08-17T17:09:14;7.38;;;6.72;;
10497;SDS011;5296;51.060;13.750;2023-08-17T17:14:16;7.47;;;6.78;;
10497;SDS011;5296;51.060;13.750;2023-08-17T17:19:17;8.75;;;6.85;;
10497;SDS011;5296;51.060;13.750;2023-08-17T17:24:19;7.57;;;6.78;;
10497;SDS011;5296;51.060;13.750;2023-08-17T17:29:24;9.05;;;7.07;;
10497;SDS011;5296;51.060;13.750;2023-08-17T17:34:26;7.45;;;6.72;;
10497;SDS011;5296;51.060;13.750;2023-08-17T17:39:27;8.52;;;6.70;;
10497;SDS011;5296;51.060;13.750;2023-08-17T17:44:29;7.25;;;6.63;;
10497;SDS011;5296;51.060;13.750;2023-08-17T17:49:31;7.53;;;6.70;;
10497;SDS011;5296;51.060;13.750;2023-08-17T17:54:32;7.85;;;6.65;;
10497;SDS011;5296;51.060;13.750;2023-08-17T17:59:38;9.18;;;6.90;;
10497;SDS011;5296;51.060;13.750;2023-08-17T18:04:40;7.15;;;6.45;;
10497;SDS011;5296;51.060;13.750;2023-08-17T18:09:41;6.78;;;6.18;;
10497;SDS011;5296;51.060;13.750;2023-08-17T18:14:43;6.88;;;6.25;;
10497;SDS011;5296;51.060;13.750;2023-08-17T18:19:45;6.85;;;6.22;;
10497;SDS011;5296;51.060;13.750;2023-08-17T18:24:47;6.75;;;6.15;;
10497;SDS011;5296;51.060;13.750;2023-08-17T18:29:48;7.10;;;6.40;;
10497;SDS011;5296;51.060;13.750;2023-08-17T18:34:50;7.30;;;6.28;;
10497;SDS011;5296;51.060;13.750;2023-08-17T18:39:52;6.07;;;5.47;;
10497;SDS011;5296;51.060;13.750;2023-08-17T18:44:54;6.25;;;5.65;;
10497;SDS011;5296;51.060;13.750;2023-08-17T18:49:56;6.43;;;5.70;;
10497;SDS011;5296;51.060;13.750;2023-08-17T18:55:01;6.03;;;5.43;;
10497;SDS011;5296;51.060;13.750;2023-08-17T19:00:04;7.93;;;5.30;;
10497;SDS011;5296;51.060;13.750;2023-08-17T19:05:07;6.47;;;5.20;;
10497;SDS011;5296;51.060;13.750;2023-08-17T19:10:09;6.65;;;5.13;;
10497;SDS011;5296;51.060;13.750;2023-08-17T19:15:11;5.75;;;5.32;;
10497;SDS011;5296;51.060;13.750;2023-08-17T19:20:12;6.05;;;5.50;;
10497;SDS011;5296;51.060;13.750;2023-08-17T19:25:14;6.57;;;5.22;;
10497;SDS011;5296;51.060;13.750;2023-08-17T19:30:16;6.70;;;5.20;;
10497;SDS011;5296;51.060;13.750;2023-08-17T19:35:19;5.82;;;5.15;;
10497;SDS011;5296;51.060;13.750;2023-08-17T19:40:21;6.10;;;5.55;;
10497;SDS011;5296;51.060;13.750;2023-08-17T19:45:23;6.15;;;5.45;;
10497;SDS011;5296;51.060;13.750;2023-08-17T19:50:25;6.78;;;5.18;;
10497;SDS011;5296;51.060;13.750;2023-08-17T19:55:26;6.07;;;5.00;;
10497;SDS011;5296;51.060;13.750;2023-08-17T20:00:28;5.13;;;4.72;;
10497;SDS011;5296;51.060;13.750;2023-08-17T20:05:29;5.18;;;4.80;;
10497;SDS011;5296;51.060;13.750;2023-08-17T20:10:31;4.82;;;4.38;;
10497;SDS011;5296;51.060;13.750;2023-08-17T20:15:33;5.20;;;4.78;;
10497;SDS011;5296;51.060;13.750;2023-08-17T20:20:34;4.95;;;4.55;;
10497;SDS011;5296;51.060;13.750;2023-08-17T20:25:36;6.10;;;4.47;;
10497;SDS011;5296;51.060;13.750;2023-08-17T20:30:38;5.57;;;5.07;;
10497;SDS011;5296;51.060;13.750;2023-08-17T20:35:39;6.95;;;5.10;;
10497;SDS011;5296;51.060;13.750;2023-08-17T20:40:41;6.03;;;4.80;;
10497;SDS011;5296;51.060;13.750;2023-08-17T20:45:43;4.30;;;3.90;;
10497;SDS011;5296;51.060;13.750;2023-08-17T20:50:45;5.55;;;4.25;;
10497;SDS011;5296;51.060;13.750;2023-08-17T20:55:46;4.72;;;4.30;;
10497;SDS011;5296;51.060;13.750;2023-08-17T21:00:49;4.22;;;3.83;;
10497;SDS011;5296;51.060;13.750;2023-08-17T21:05:51;5.43;;;4.28;;
10497;SDS011;5296;51.060;13.750;2023-08-17T21:10:53;6.97;;;6.38;;
10497;SDS011;5296;51.060;13.750;2023-08-17T21:16:04;12.45;;;5.80;;
10497;SDS011;5296;51.060;13.750;2023-08-17T21:21:06;5.68;;;4.85;;
10497;SDS011;5296;51.060;13.750;2023-08-17T21:26:08;7.72;;;4.60;;
10497;SDS011;5296;51.060;13.750;2023-08-17T21:31:10;5.85;;;4.38;;
10497;SDS011;5296;51.060;13.750;2023-08-17T21:36:11;9.50;;;5.25;;
10497;SDS011;5296;51.060;13.750;2023-08-17T21:41:13;6.82;;;5.03;;
10497;SDS011;5296;51.060;13.750;2023-08-17T21:46:17;7.88;;;5.22;;
10497;SDS011;5296;51.060;13.750;2023-08-17T21:51:18;5.28;;;4.55;;
10497;SDS011;5296;51.060;13.750;2023-08-17T21:56:20;6.88;;;5.20;;
10497;SDS011;5296;51.060;13.750;2023-08-17T22:01:22;9.77;;;4.90;;
10497;SDS011;5296;51.060;13.750;2023-08-17T22:06:23;9.95;;;5.88;;
10497;SDS011;5296;51.060;13.750;2023-08-17T22:11:25;6.28;;;5.68;;
10497;SDS011;5296;51.060;13.750;2023-08-17T22:16:27;6.55;;;5.95;;
10497;SDS011;5296;51.060;13.750;2023-08-17T22:21:28;7.95;;;7.20;;
10497;SDS011;5296;51.060;13.750;2023-08-17T22:26:30;9.07;;;6.35;;
10497;SDS011;5296;51.060;13.750;2023-08-17T22:31:32;8.15;;;5.90;;
10497;SDS011;5296;51.060;13.750;2023-08-17T22:36:34;6.72;;;6.05;;
10497;SDS011;5296;51.060;13.750;2023-08-17T22:41:36;5.97;;;5.47;;
10497;SDS011;5296;51.060;13.750;2023-08-17T22:46:38;6.72;;;5.93;;
10497;SDS011;5296;51.060;13.750;2023-08-17T22:51:40;9.02;;;6.82;;
10497;SDS011;5296;51.060;13.750;2023-08-17T22:56:41;6.28;;;5.80;;
10497;SDS011;5296;51.060;13.750;2023-08-17T23:01:43;8.30;;;6.70;;
10497;SDS011;5296;51.060;13.750;2023-08-17T23:06:45;7.60;;;6.47;;
10497;SDS011;5296;51.060;13.750;2023-08-17T23:11:47;6.95;;;6.25;;
10497;SDS011;5296;51.060;13.750;2023-08-17T23:16:48;7.72;;;6.95;;
10497;SDS011;5296;51.060;13.750;2023-08-17T23:21:50;6.75;;;6.03;;
10497;SDS011;5296;51.060;13.750;2023-08-17T23:26:52;6.80;;;6.13;;
10497;SDS011;5296;51.060;13.750;2023-08-17T23:31:54;7.10;;;6.38;;
10497;SDS011;5296;51.060;13.750;2023-08-17T23:36:55;6.07;;;5.57;;
10497;SDS011;5296;51.060;13.750;2023-08-17T23:41:57;6.10;;;5.60;;
10497;SDS011;5296;51.060;13.750;2023-08-17T23:46:59;7.90;;;5.78;;
10497;SDS011;5296;51.060;13.750;2023-08-17T23:52:01;7.03;;;5.70;;
10497;SDS011;5296;51.060;13.750;2023-08-17T23:57:02;5.70;;;5.30;;
